Bridgewater, Massachusetts
Current Conditions -  °F | °C
As of 8:06 AM on Friday 24 Oct 2014 (Local Time) from KTAN Reporting Station
Overcast Overcast  
Wind Chill: 51°   Ceiling: 900
Heat Index: 51°   Visibility: 10mi
Dew Point: 48°   Wind: 6mph
Humidity: 89%   Direction: 330°NNW
Pressure: 29.69"   Gusts: NA
Location:  41.99°N, 70.98°W
Report Text: KTAN 241206Z AUTO 33005KT 10SM BKN009 OVC014 11/09 A2969 RMK AO2 CIG 007V012 T01060089
Loading
Personal Weather Stations






























Interactive Weather Map
Tropical Storm Tracking
New forecast layout! Learn more

10-Day Weather Forecast

Advertisements
Track Severe Weather on mobile